Time;durP1;ratioP1;P1;durP2;ratioP2;P2;SDS_P1;SDS_P2;PMS_P1;PMS_P2;Temp;Humidity;BMP_temperature;BMP_pressure;BME280_temperature;BME280_humidity;BME280_pressure;Samples;Min_cycle;Max_cycle;Signal;HPM_P1;HPM_P2
2022/10/22 00:00:13;;;;;;;882.70;821.50;;;;;;;15.91;74.79;100611.75;704204;28;22371;-62
2022/10/22 00:00:36;;;;;;;888.28;826.80;;;;;;;15.90;74.73;100612.81;701240;28;90318;-63
2022/10/22 00:00:57;;;;;;;893.40;831.85;;;;;;;15.91;75.08;100609.03;702150;27;68393;-63
2022/10/22 00:01:19;;;;;;;892.20;830.72;;;;;;;15.89;75.07;100605.69;704103;28;21504;-62
2022/10/22 00:01:40;;;;;;;870.75;809.95;;;;;;;15.89;75.34;100614.69;701220;27;46343;-62
2022/10/22 00:02:04;;;;;;;885.17;823.97;;;;;;;15.89;75.45;100605.69;703221;28;46478;-62
2022/10/22 00:02:26;;;;;;;895.67;834.17;;;;;;;15.88;75.47;100607.59;702334;28;67129;-62
2022/10/22 00:02:48;;;;;;;879.25;818.15;;;;;;;15.89;75.22;100613.88;702031;28;70379;-62
2022/10/22 00:03:09;;;;;;;889.63;828.10;;;;;;;15.88;75.48;100613.03;704067;28;21519;-62
2022/10/22 00:03:30;;;;;;;891.35;829.83;;;;;;;15.88;75.55;100614.91;703351;28;23511;-62
2022/10/22 00:03:52;;;;;;;888.60;827.13;;;;;;;15.87;75.65;100613.25;703272;28;22209;-62
2022/10/22 00:04:13;;;;;;;892.92;831.28;;;;;;;15.84;75.49;100612.63;703310;28;44391;-62
2022/10/22 00:04:34;;;;;;;893.63;832.05;;;;;;;15.87;75.25;100611.34;703996;28;23425;-62
2022/10/22 00:04:55;;;;;;;884.13;822.88;;;;;;;15.86;75.49;100612.41;703203;28;44399;-62
2022/10/22 00:05:18;;;;;;;880.30;819.08;;;;;;;15.85;75.62;100611.56;703918;28;22398;-63
2022/10/22 00:05:39;;;;;;;886.30;824.90;;;;;;;15.87;75.47;100608.63;703271;28;46270;-64
2022/10/22 00:06:00;;;;;;;886.60;825.28;;;;;;;15.86;75.47;100617.84;704091;28;21560;-62
2022/10/22 00:06:21;;;;;;;886.65;825.30;;;;;;;15.86;75.76;100606.94;703287;28;22401;-62
2022/10/22 00:06:43;;;;;;;890.17;828.67;;;;;;;15.85;75.63;100602.56;702651;28;45056;-62
2022/10/22 00:07:06;;;;;;;888.92;827.33;;;;;;;15.84;75.61;100615.34;703168;28;12764;-62
2022/10/22 00:07:27;;;;;;;884.42;823.08;;;;;;;15.85;75.83;100608.84;702847;28;44063;-63
2022/10/22 00:07:48;;;;;;;882.00;820.83;;;;;;;15.83;75.54;100604.66;703808;28;22400;-62
2022/10/22 00:08:09;;;;;;;893.20;831.60;;;;;;;15.85;75.59;100613.47;703044;28;46278;-62
2022/10/22 00:08:31;;;;;;;892.40;830.70;;;;;;;15.84;75.83;100614.50;703124;28;20781;-62
2022/10/22 00:08:53;;;;;;;882.42;821.13;;;;;;;15.83;75.82;100600.06;702949;28;46340;-63
2022/10/22 00:09:14;;;;;;;879.47;818.22;;;;;;;15.83;75.78;100610.97;701203;28;23413;-62
2022/10/22 00:09:35;;;;;;;882.75;821.45;;;;;;;15.84;75.82;100609.88;700206;28;46268;-62
2022/10/22 00:09:57;;;;;;;888.15;826.78;;;;;;;15.83;75.92;100599.22;701095;28;22393;-61
2022/10/22 00:10:21;;;;;;;883.63;822.35;;;;;;;15.83;76.01;100599.22;701304;28;13771;-62
2022/10/22 00:10:42;;;;;;;882.33;821.13;;;;;;;15.83;75.88;100600.06;701265;28;23467;-62
2022/10/22 00:11:10;;;;;;;868.83;808.13;;;;;;;15.80;76.24;100607.84;701228;28;21314;-62
2022/10/22 00:11:32;;;;;;;887.45;826.08;;;;;;;15.83;76.15;100608.25;697040;28;137962;-62
2022/10/22 00:11:54;;;;;;;881.38;820.33;;;;;;;15.83;76.10;100616.41;700420;28;44178;-63
2022/10/22 00:12:15;;;;;;;876.28;815.30;;;;;;;15.82;75.88;100614.72;700599;28;21846;-61
2022/10/22 00:12:36;;;;;;;888.65;827.20;;;;;;;15.83;75.76;100610.09;700242;28;46766;-62
2022/10/22 00:13:00;;;;;;;887.15;825.75;;;;;;;15.83;75.87;100618.28;701815;28;882;-62
2022/10/22 00:13:21;;;;;;;875.65;814.55;;;;;;;15.83;76.30;100619.13;699482;28;64538;-64
2022/10/22 00:13:42;;;;;;;876.08;815.03;;;;;;;15.83;76.20;100613.69;702646;28;21544;-62
2022/10/22 00:14:04;;;;;;;871.35;810.50;;;;;;;15.84;76.16;100614.50;703715;28;21582;-62
2022/10/22 00:14:25;;;;;;;883.88;822.55;;;;;;;15.84;75.90;100622.69;703604;28;22409;-63
2022/10/22 00:14:48;;;;;;;889.08;827.70;;;;;;;15.84;76.32;100619.94;704635;28;1338;-62
2022/10/22 00:15:10;;;;;;;882.80;821.50;;;;;;;15.84;76.19;100614.50;706431;27;11975;-62
2022/10/22 00:15:31;;;;;;;884.67;823.30;;;;;;;15.82;75.78;100609.28;705808;27;45246;-62
2022/10/22 00:15:54;;;;;;;880.45;819.28;;;;;;;15.83;76.34;100610.97;706883;27;22423;-62
2022/10/22 00:16:16;;;;;;;883.33;822.13;;;;;;;15.82;76.07;100609.28;705286;27;69627;-63
2022/10/22 00:16:37;;;;;;;895.40;833.72;;;;;;;15.81;76.23;100607.59;704159;27;46306;-63
2022/10/22 00:16:59;;;;;;;896.25;834.45;;;;;;;15.80;76.13;100603.22;703327;28;21597;-63
2022/10/22 00:17:20;;;;;;;898.97;836.95;;;;;;;15.80;76.32;100600.50;702732;28;42771;-63
2022/10/22 00:17:43;;;;;;;868.83;808.00;;;;;;;15.80;76.26;100597.78;702916;28;46412;-63
2022/10/22 00:18:04;;;;;;;893.83;832.25;;;;;;;15.79;76.31;100603.44;703023;28;46343;-63
2022/10/22 00:18:25;;;;;;;890.55;829.05;;;;;;;15.79;76.36;100604.25;703722;28;21607;-63
2022/10/22 00:18:46;;;;;;;882.15;820.92;;;;;;;15.78;76.59;100599.88;704046;28;4088;-63
2022/10/22 00:19:09;;;;;;;878.05;816.97;;;;;;;15.80;76.34;100605.13;703936;28;22221;-63
2022/10/22 00:19:31;;;;;;;883.22;821.95;;;;;;;15.80;76.56;100611.38;701545;28;92355;-62
2022/10/22 00:19:52;;;;;;;875.60;814.55;;;;;;;15.80;76.37;100605.13;703629;28;23378;-63
2022/10/22 00:20:13;;;;;;;873.35;812.47;;;;;;;15.80;76.11;100605.13;704076;28;21521;-63
2022/10/22 00:20:34;;;;;;;875.40;814.40;;;;;;;15.80;76.24;100605.94;704114;28;21530;-63
2022/10/22 00:20:56;;;;;;;877.50;816.38;;;;;;;15.80;76.19;100607.84;703996;28;23775;-63
2022/10/22 00:21:17;;;;;;;871.08;810.28;;;;;;;15.82;76.07;100608.44;703167;28;46311;-63
2022/10/22 00:21:38;;;;;;;890.50;829.15;;;;;;;15.82;76.06;100613.91;703251;28;44039;-63
2022/10/22 00:22:00;;;;;;;880.33;819.33;;;;;;;15.82;75.98;100609.28;704113;28;22427;-63
2022/10/22 00:22:21;;;;;;;868.78;808.10;;;;;;;15.82;75.94;100608.44;703855;27;22410;-63
2022/10/22 00:22:43;;;;;;;881.05;820.00;;;;;;;15.82;76.01;100605.72;704175;28;22396;-63
2022/10/22 00:23:04;;;;;;;878.38;817.28;;;;;;;15.83;75.91;100604.66;703329;28;44292;-63
2022/10/22 00:23:25;;;;;;;881.80;820.55;;;;;;;15.83;75.99;100602.78;703850;28;22213;-63
2022/10/22 00:23:47;;;;;;;888.08;826.60;;;;;;;15.81;76.19;100599.44;702646;28;46330;-63
2022/10/22 00:24:08;;;;;;;885.75;824.35;;;;;;;15.82;76.00;100603.00;703132;28;46292;-64
2022/10/22 00:24:30;;;;;;;888.20;826.80;;;;;;;15.82;76.06;100603.84;704036;28;23297;-63
2022/10/22 00:24:52;;;;;;;896.97;835.33;;;;;;;15.82;76.09;100603.84;701443;28;44169;-63
2022/10/22 00:25:13;;;;;;;887.70;826.28;;;;;;;15.80;76.06;100605.94;703865;28;22400;-63
2022/10/22 00:25:34;;;;;;;890.63;829.10;;;;;;;15.80;76.45;100603.22;703882;28;23547;-63
2022/10/22 00:25:56;;;;;;;873.40;812.50;;;;;;;15.80;76.21;100602.41;701874;28;21527;-63
2022/10/22 00:26:18;;;;;;;878.40;817.30;;;;;;;15.79;76.18;100604.25;703944;28;22411;-63
2022/10/22 00:26:39;;;;;;;885.45;824.10;;;;;;;15.79;76.43;100603.44;703059;28;46334;-63
2022/10/22 00:27:00;;;;;;;894.78;833.00;;;;;;;15.79;76.36;100604.25;702736;28;46264;-63
2022/10/22 00:27:21;;;;;;;905.53;843.33;;;;;;;15.78;76.46;100608.06;703801;28;22426;-63
2022/10/22 00:27:42;;;;;;;893.15;831.50;;;;;;;15.79;76.39;100611.59;703976;27;22382;-63
2022/10/22 00:28:06;;;;;;;877.22;816.22;;;;;;;15.80;76.40;100608.66;704897;28;933;-62
2022/10/22 00:28:27;;;;;;;886.47;825.00;;;;;;;15.79;76.53;100606.97;700909;28;92231;-62
2022/10/22 00:28:49;;;;;;;882.80;821.38;;;;;;;15.81;76.53;100617.66;703925;28;23440;-62
2022/10/22 00:29:10;;;;;;;879.30;818.15;;;;;;;15.80;76.16;100608.66;703990;28;22514;-62
2022/10/22 00:29:32;;;;;;;881.35;820.05;;;;;;;15.80;76.38;100605.13;703913;28;22373;-62
2022/10/22 00:29:53;;;;;;;890.95;829.30;;;;;;;15.79;76.08;100606.97;702853;28;46377;-62
2022/10/22 00:30:15;;;;;;;882.55;821.20;;;;;;;15.80;76.27;100602.41;703895;28;22379;-62
2022/10/22 00:30:36;;;;;;;879.03;817.75;;;;;;;15.79;76.20;100598.00;703658;28;23276;-63
2022/10/22 00:30:59;;;;;;;889.80;828.25;;;;;;;15.79;76.29;100598.81;703075;28;46331;-62
2022/10/22 00:31:22;;;;;;;881.15;819.92;;;;;;;15.79;76.07;100595.25;701534;28;92320;-62
2022/10/22 00:31:48;;;;;;;883.22;822.08;;;;;;;15.79;76.13;100600.72;703134;28;45228;-62
2022/10/22 00:32:09;;;;;;;887.10;825.90;;;;;;;15.79;75.95;100600.72;700107;27;138756;-63
2022/10/22 00:32:30;;;;;;;879.35;818.30;;;;;;;15.77;76.29;100592.75;704050;28;22371;-62
2022/10/22 00:32:52;;;;;;;874.95;813.88;;;;;;;15.77;76.25;100595.47;703845;27;22427;-63
2022/10/22 00:33:13;;;;;;;886.85;825.38;;;;;;;15.78;76.27;100594.44;702984;28;43689;-64
2022/10/22 00:33:34;;;;;;;878.40;817.28;;;;;;;15.74;75.98;100587.72;703278;28;21570;-63
2022/10/22 00:33:56;;;;;;;882.85;821.58;;;;;;;15.74;76.46;100592.31;704002;28;11876;-63
2022/10/22 00:34:18;;;;;;;875.95;815.00;;;;;;;15.76;76.46;100596.50;703784;28;21539;-63
2022/10/22 00:34:40;;;;;;;882.63;821.33;;;;;;;15.77;76.59;100600.09;702212;28;69465;-63
2022/10/22 00:35:01;;;;;;;885.92;824.58;;;;;;;15.76;76.59;100601.94;703593;28;23144;-63
2022/10/22 00:35:22;;;;;;;859.30;798.83;;;;;;;15.76;76.55;100595.66;704019;28;22412;-63
2022/10/22 00:35:43;;;;;;;877.28;816.13;;;;;;;15.74;76.12;100595.88;703902;28;23522;-63
2022/10/22 00:36:06;;;;;;;886.08;824.72;;;;;;;15.75;76.15;100603.00;703217;28;45233;-63
2022/10/22 00:36:27;;;;;;;876.53;815.42;;;;;;;15.76;76.26;100598.38;703147;28;46269;-63
2022/10/22 00:36:50;;;;;;;890.60;829.08;;;;;;;15.75;76.43;100593.97;703169;28;46343;-62
2022/10/22 00:37:11;;;;;;;889.58;827.88;;;;;;;15.76;76.48;100603.84;702553;28;45243;-63
2022/10/22 00:37:32;;;;;;;874.95;813.85;;;;;;;15.76;76.49;100595.66;703251;28;22336;-62
2022/10/22 00:37:54;;;;;;;877.75;816.60;;;;;;;15.76;76.21;100599.22;703681;28;22380;-62
2022/10/22 00:38:15;;;;;;;882.30;821.00;;;;;;;15.74;76.31;100593.16;700350;28;46336;-62
2022/10/22 00:38:36;;;;;;;899.47;837.67;;;;;;;15.75;76.13;100589.38;699190;28;44387;-61
2022/10/22 00:38:58;;;;;;;891.42;829.97;;;;;;;15.75;75.67;100586.66;700981;28;21547;-63
2022/10/22 00:39:23;;;;;;;879.33;818.30;;;;;;;15.75;75.92;100592.13;701033;28;21545;-62
2022/10/22 00:39:44;;;;;;;883.45;822.22;;;;;;;15.76;76.04;100584.78;697989;28;115034;-62
2022/10/22 00:40:06;;;;;;;905.03;843.08;;;;;;;15.76;75.91;100579.31;701194;28;23382;-64
2022/10/22 00:40:29;;;;;;;895.50;833.83;;;;;;;15.76;75.93;100587.50;699614;28;69430;-64
2022/10/22 00:40:50;;;;;;;887.05;825.67;;;;;;;15.75;76.05;100581.22;703291;28;45424;-62
2022/10/22 00:41:12;;;;;;;887.88;826.58;;;;;;;15.76;76.21;100582.06;703205;28;44387;-62
2022/10/22 00:41:33;;;;;;;886.72;825.38;;;;;;;15.77;75.91;100587.31;703154;28;44394;-62
2022/10/22 00:41:56;;;;;;;898.88;837.15;;;;;;;15.77;75.77;100586.47;704086;28;22367;-64
2022/10/22 00:42:19;;;;;;;885.47;824.22;;;;;;;15.77;76.13;100578.31;701860;28;69249;-62
2022/10/22 00:42:42;;;;;;;875.55;814.63;;;;;;;15.77;76.43;100581.88;702441;28;70215;-63
2022/10/22 00:43:03;;;;;;;885.38;824.15;;;;;;;15.77;76.26;100576.41;703431;27;45111;-63
2022/10/22 00:43:25;;;;;;;883.13;821.92;;;;;;;15.76;76.16;100582.88;704022;28;22470;-63
2022/10/22 00:43:55;;;;;;;874.25;813.28;;;;;;;15.76;76.31;100580.16;703035;27;34560;-62
2022/10/22 00:44:54;;;;;;;869.67;808.75;;;;;;;15.76;76.05;100580.16;697024;28;137839;-62
2022/10/22 00:45:19;;;;;;;876.97;815.88;;;;;;;15.76;76.23;100571.97;697150;28;136049;-63
2022/10/22 00:45:41;;;;;;;884.10;822.72;;;;;;;15.76;76.11;100580.16;697858;28;113619;-63
2022/10/22 00:46:03;;;;;;;888.63;827.22;;;;;;;15.75;76.50;100575.78;700464;28;44386;-63
2022/10/22 00:46:28;;;;;;;886.45;825.00;;;;;;;15.76;76.22;100577.44;699637;28;61879;-63
2022/10/22 00:46:49;;;;;;;887.55;826.15;;;;;;;15.75;76.20;100574.91;701779;28;22396;-63
2022/10/22 00:47:10;;;;;;;888.05;826.45;;;;;;;15.75;76.52;100572.19;703254;28;22400;-63
2022/10/22 00:47:35;;;;;;;891.57;830.00;;;;;;;15.77;76.24;100578.31;703829;28;22405;-63
2022/10/22 00:48:00;;;;;;;879.22;818.10;;;;;;;15.75;76.41;100572.19;700913;27;115084;-63
2022/10/22 00:48:23;;;;;;;896.83;835.13;;;;;;;15.75;76.33;100578.50;700686;27;114894;-63
2022/10/22 00:48:44;;;;;;;893.05;831.40;;;;;;;15.74;76.25;100576.00;701860;28;67458;-63
2022/10/22 00:49:07;;;;;;;881.90;820.75;;;;;;;15.74;76.68;100581.44;703287;28;45276;-63
2022/10/22 00:49:28;;;;;;;896.63;834.92;;;;;;;15.73;76.42;100580.56;703032;28;46326;-63
2022/10/22 00:49:50;;;;;;;900.58;838.70;;;;;;;15.73;76.48;100583.31;704035;27;23501;-63
2022/10/22 00:50:15;;;;;;;892.00;830.40;;;;;;;15.73;76.55;100586.03;703332;27;44361;-63
2022/10/22 00:50:40;;;;;;;894.35;832.70;;;;;;;15.73;76.42;100586.03;700565;28;113554;-63
2022/10/22 00:51:03;;;;;;;872.67;811.78;;;;;;;15.73;76.64;100583.31;700627;28;116116;-63
2022/10/22 00:51:27;;;;;;;885.10;823.78;;;;;;;15.73;76.64;100579.75;702306;28;69177;-63
2022/10/22 00:51:48;;;;;;;892.58;831.13;;;;;;;15.73;76.23;100586.03;701384;28;92087;-63
2022/10/22 00:52:11;;;;;;;879.97;818.95;;;;;;;15.73;76.62;100591.47;704052;28;22429;-63
2022/10/22 00:52:32;;;;;;;881.90;820.65;;;;;;;15.73;76.78;100585.19;702277;28;69102;-63
2022/10/22 00:52:54;;;;;;;881.40;820.20;;;;;;;15.71;76.71;100595.47;703802;28;23382;-63
2022/10/22 00:53:18;;;;;;;900.20;838.33;;;;;;;15.71;76.56;100596.31;703163;28;45263;-63
2022/10/22 00:53:44;;;;;;;888.58;827.13;;;;;;;15.71;76.64;100595.47;700210;27;115215;-63
2022/10/22 00:54:07;;;;;;;895.70;834.08;;;;;;;15.69;76.99;100595.69;700056;28;136094;-63
2022/10/22 00:54:28;;;;;;;885.85;824.45;;;;;;;15.70;76.61;100602.78;702289;28;69517;-63
2022/10/22 00:54:50;;;;;;;884.92;823.53;;;;;;;15.69;76.77;100598.41;703832;28;22380;-63
2022/10/22 00:55:12;;;;;;;889.80;828.30;;;;;;;15.70;76.86;100599.25;703957;28;23469;-63
2022/10/22 00:55:34;;;;;;;891.38;829.85;;;;;;;15.68;76.92;100603.00;703148;28;46361;-63
2022/10/22 00:55:55;;;;;;;892.42;830.83;;;;;;;15.68;76.67;100605.72;703140;28;46343;-63
2022/10/22 00:56:17;;;;;;;889.13;827.65;;;;;;;15.67;76.96;100604.06;704772;28;1050;-63
2022/10/22 00:56:38;;;;;;;887.58;826.22;;;;;;;15.67;76.80;100605.94;703898;28;21207;-63
2022/10/22 00:56:59;;;;;;;886.17;824.72;;;;;;;15.67;76.87;100609.53;703486;28;21516;-63
2022/10/22 00:57:22;;;;;;;886.25;824.78;;;;;;;15.67;76.62;100606.78;702927;28;45276;-62
2022/10/22 00:57:44;;;;;;;884.85;823.42;;;;;;;15.67;76.81;100611.38;701738;28;69267;-62
2022/10/22 00:58:05;;;;;;;881.85;820.67;;;;;;;15.68;nan;100604.91;702689;28;46344;-63
2022/10/22 00:58:30;;;;;;;895.42;833.72;;;;;;;15.66;77.27;100607.00;703569;28;22144;-63
2022/10/22 00:58:54;;;;;;;890.28;828.58;;;;;;;15.66;77.21;100602.41;701514;28;74460;-63
2022/10/22 00:59:15;;;;;;;888.50;826.88;;;;;;;15.67;77.07;100606.78;700905;28;89057;-63
2022/10/22 00:59:37;;;;;;;883.13;821.80;;;;;;;15.68;76.87;100604.91;702780;28;46851;-63
2022/10/22 00:59:58;;;;;;;897.78;836.00;;;;;;;15.68;76.89;100604.91;702609;28;46308;-63
2022/10/22 01:00:21;;;;;;;895.72;834.03;;;;;;;15.68;76.70;100603.00;703515;28;22414;-63
2022/10/22 01:00:42;;;;;;;890.03;828.45;;;;;;;15.69;76.84;100606.59;701909;28;45242;-63
2022/10/22 01:01:05;;;;;;;876.95;815.90;;;;;;;15.69;76.98;100601.13;702846;28;46401;-62
2022/10/22 01:01:28;;;;;;;883.85;822.55;;;;;;;15.68;76.88;100608.44;701643;28;69416;-62
2022/10/22 01:01:51;;;;;;;877.00;816.00;;;;;;;15.67;76.91;100606.78;702037;28;69326;-63
2022/10/22 01:02:13;;;;;;;884.35;823.20;;;;;;;15.66;76.88;100607.84;702067;28;67480;-62
2022/10/22 01:02:34;;;;;;;896.88;835.33;;;;;;;15.66;77.29;100607.00;703323;28;22405;-62
2022/10/22 01:02:56;;;;;;;893.45;831.85;;;;;;;15.66;77.23;100610.56;702874;28;46448;-62
2022/10/22 01:03:18;;;;;;;880.38;819.17;;;;;;;15.66;77.42;100607.00;702853;28;44323;-62
2022/10/22 01:03:40;;;;;;;894.35;832.70;;;;;;;15.62;77.28;100603.84;702612;28;46281;-63
2022/10/22 01:04:01;;;;;;;890.08;828.65;;;;;;;15.65;77.57;100608.88;703272;28;45119;-62
2022/10/22 01:04:22;;;;;;;883.45;822.20;;;;;;;15.64;77.16;100607.22;703941;28;22394;-62
2022/10/22 01:04:43;;;;;;;892.05;830.45;;;;;;;15.64;77.24;100607.22;703791;28;22413;-63
2022/10/22 01:05:06;;;;;;;882.53;821.23;;;;;;;15.62;77.48;100609.31;703927;28;22257;-63
2022/10/22 01:05:29;;;;;;;892.05;830.50;;;;;;;15.65;77.56;100616.22;701516;28;90878;-62
2022/10/22 01:05:54;;;;;;;896.90;835.20;;;;;;;15.64;77.63;100623.56;702089;28;67211;-64
2022/10/22 01:06:20;;;;;;;884.65;823.38;;;;;;;15.64;77.66;100619.97;701402;28;91935;-62
2022/10/22 01:06:42;;;;;;;884.03;822.72;;;;;;;15.64;77.54;100620.84;698997;28;159343;-62
2022/10/22 01:07:04;;;;;;;890.33;828.67;;;;;;;15.65;77.48;100621.66;698789;28;67258;-62
2022/10/22 01:07:25;;;;;;;885.78;824.30;;;;;;;15.65;77.68;100627.09;700551;28;23418;-64
2022/10/22 01:07:48;;;;;;;888.67;827.28;;;;;;;15.63;77.80;100621.03;702671;28;21544;-63
2022/10/22 01:08:18;;;;;;;898.28;836.58;;;;;;;15.65;77.71;100622.47;700415;28;69474;-62
2022/10/22 01:08:45;;;;;;;906.42;844.38;;;;;;;15.66;77.72;100620.63;696427;28;135716;-63
2022/10/22 01:09:16;;;;;;;885.10;823.72;;;;;;;15.64;77.77;100618.13;699873;28;58960;-62
2022/10/22 01:09:40;;;;;;;896.45;834.75;;;;;;;15.65;77.66;100618.94;697619;28;137929;-63
2022/10/22 01:10:08;;;;;;;896.00;834.30;;;;;;;15.65;77.71;100614.31;700641;28;114762;-63
2022/10/22 01:10:38;;;;;;;888.75;827.25;;;;;;;15.66;77.87;100615.19;699832;28;136287;-63
2022/10/22 01:11:07;;;;;;;877.40;816.38;;;;;;;15.67;77.93;100616.81;699965;28;137992;-63
2022/10/22 01:11:34;;;;;;;884.78;823.45;;;;;;;15.67;77.67;100617.69;698351;28;137910;-63
2022/10/22 01:12:03;;;;;;;877.58;816.55;;;;;;;15.67;77.79;100622.28;697099;28;137926;-63
2022/10/22 01:12:32;;;;;;;894.13;832.65;;;;;;;15.67;77.94;100616.81;697054;28;137602;-63
2022/10/22 01:13:01;;;;;;;896.60;835.05;;;;;;;15.66;77.84;100621.44;697057;28;137726;-63
2022/10/22 01:13:31;;;;;;;884.63;823.35;;;;;;;15.66;77.64;100616.00;696870;28;137995;-63
2022/10/22 01:13:58;;;;;;;883.63;822.28;;;;;;;15.66;77.43;100621.44;695114;28;180481;-63
2022/10/22 01:14:24;;;;;;;877.83;816.70;;;;;;;15.65;77.54;100614.31;699582;28;137926;-63
2022/10/22 01:14:55;;;;;;;897.35;835.58;;;;;;;15.67;77.25;100617.69;699474;28;136586;-63
2022/10/22 01:15:22;;;;;;;885.50;824.10;;;;;;;15.66;77.71;100616.00;696914;28;137368;-62
2022/10/22 01:15:51;;;;;;;880.38;819.00;;;;;;;15.68;77.44;100615.78;696827;28;136671;-63
2022/10/22 01:16:21;;;;;;;880.95;819.78;;;;;;;15.68;77.21;100607.63;697299;28;136346;-63
2022/10/22 01:16:47;;;;;;;901.83;839.88;;;;;;;15.68;77.30;100618.50;699896;28;137690;-63
2022/10/22 01:17:13;;;;;;;893.85;831.95;;;;;;;15.67;76.92;100611.38;699596;28;137832;-62
2022/10/22 01:17:40;;;;;;;901.13;839.15;;;;;;;15.68;76.91;100607.63;699538;28;137859;-63
2022/10/22 01:18:06;;;;;;;881.88;820.67;;;;;;;15.66;77.15;100613.28;699864;28;136094;-61
2022/10/22 01:18:34;;;;;;;873.90;812.80;;;;;;;15.69;77.20;100620.19;699723;28;136464;-62
2022/10/22 01:19:01;;;;;;;888.17;826.75;;;;;;;15.68;76.91;100622.06;699083;28;156642;-64
2022/10/22 01:19:37;;;;;;;884.85;823.50;;;;;;;15.70;77.16;100627.28;699727;28;136278;-63
2022/10/22 01:20:08;;;;;;;894.47;832.88;;;;;;;15.70;76.97;100627.28;699823;28;135996;-63
2022/10/22 01:20:54;;;;;;;885.13;823.63;;;;;;;15.69;76.90;100620.19;699738;28;137574;-62
2022/10/22 01:21:23;;;;;;;880.75;819.55;;;;;;;15.69;77.11;100622.91;699727;28;137663;-63
2022/10/22 01:21:46;;;;;;;874.58;813.65;;;;;;;15.67;77.25;100623.13;699744;28;137903;-63
2022/10/22 01:22:12;;;;;;;871.20;810.40;;;;;;;15.70;77.23;100619.13;702336;28;69379;-64
2022/10/22 01:22:36;;;;;;;881.83;820.67;;;;;;;15.69;77.24;100614.75;700647;28;116071;-62
2022/10/22 01:23:03;;;;;;;887.60;826.25;;;;;;;15.70;76.88;100613.69;700551;28;115268;-63
2022/10/22 01:23:36;;;;;;;877.03;815.97;;;;;;;15.71;77.06;100612.63;699771;28;138134;-63
2022/10/22 01:24:20;;;;;;;883.60;822.22;;;;;;;15.70;76.89;100605.50;698778;28;157459;-63
2022/10/22 01:24:52;;;;;;;882.92;821.63;;;;;;;15.71;77.02;100601.75;699003;28;160617;-62
2022/10/22 01:25:16;;;;;;;879.45;818.28;;;;;;;15.71;76.89;100595.47;699831;28;137440;-62
2022/10/22 01:25:44;;;;;;;877.85;816.72;;;;;;;15.71;76.95;100599.03;700476;28;115480;-62
2022/10/22 01:26:13;;;;;;;883.13;821.83;;;;;;;15.72;77.00;100591.69;699536;28;138218;-63
2022/10/22 01:26:45;;;;;;;878.10;816.95;;;;;;;15.72;76.96;100591.69;699703;28;137815;-62
2022/10/22 01:27:14;;;;;;;891.13;829.45;;;;;;;15.71;76.90;100588.13;699292;28;137497;-63
2022/10/22 01:27:52;;;;;;;890.10;828.53;;;;;;;15.72;76.78;100587.09;699587;28;137511;-62
2022/10/22 01:28:24;;;;;;;896.15;834.47;;;;;;;15.73;76.62;100587.91;699807;28;137666;-62
2022/10/22 01:29:00;;;;;;;881.33;820.05;;;;;;;15.71;76.40;100577.25;699459;28;137401;-62
2022/10/22 01:29:25;;;;;;;897.83;836.03;;;;;;;15.73;76.19;100579.75;699542;28;138403;-62
2022/10/22 01:29:49;;;;;;;890.47;828.95;;;;;;;15.73;76.66;100583.31;700414;28;114986;-63
2022/10/22 01:30:12;;;;;;;872.60;811.60;;;;;;;15.72;76.73;100576.22;701414;28;92287;-64
2022/10/22 01:30:34;;;;;;;891.45;829.85;;;;;;;15.72;76.40;100580.78;702228;28;67474;-63
2022/10/22 01:30:57;;;;;;;894.67;833.08;;;;;;;15.66;76.42;100575.16;702890;28;45224;-63
2022/10/22 01:31:20;;;;;;;889.15;827.78;;;;;;;15.72;76.55;100578.94;703141;28;45803;-63
2022/10/22 01:31:44;;;;;;;898.03;836.28;;;;;;;15.67;76.65;100571.41;701464;28;92284;-63
2022/10/22 01:32:08;;;;;;;883.42;822.28;;;;;;;15.73;76.77;100580.56;701662;28;91704;-64
2022/10/22 01:32:31;;;;;;;872.53;811.63;;;;;;;15.72;76.54;100587.09;702093;28;69431;-61
2022/10/22 01:32:57;;;;;;;864.47;803.85;;;;;;;15.73;76.69;100585.19;701466;28;92151;-63
2022/10/22 01:33:20;;;;;;;876.78;815.75;;;;;;;15.71;76.79;100585.41;699859;28;138201;-63
2022/10/22 01:33:42;;;;;;;877.55;816.40;;;;;;;15.72;76.50;100580.78;700964;28;92300;-63
2022/10/22 01:34:03;;;;;;;875.05;814.00;;;;;;;15.71;76.71;100585.41;702926;28;46294;-63
2022/10/22 01:34:29;;;;;;;878.25;816.97;;;;;;;15.71;76.70;100582.69;704029;28;14837;-63
2022/10/22 01:34:56;;;;;;;887.05;825.63;;;;;;;15.73;76.41;100586.03;702249;28;69470;-63
2022/10/22 01:35:21;;;;;;;882.30;821.00;;;;;;;15.64;76.44;100571.84;699745;28;137893;-63
2022/10/22 01:35:45;;;;;;;890.03;828.53;;;;;;;15.71;76.43;100570.97;700644;27;113276;-63
2022/10/22 01:36:07;;;;;;;886.30;824.90;;;;;;;15.73;76.68;100577.03;701535;28;92347;-63
2022/10/22 01:36:29;;;;;;;872.28;811.25;;;;;;;15.73;76.52;100580.56;702907;28;44382;-63
2022/10/22 01:36:52;;;;;;;876.78;815.65;;;;;;;15.73;76.54;100580.56;702965;28;45305;-63
2022/10/22 01:37:14;;;;;;;887.22;825.65;;;;;;;15.73;76.67;100580.56;702052;28;67235;-63
2022/10/22 01:37:46;;;;;;;887.70;826.20;;;;;;;15.72;76.53;100576.22;703023;28;47403;-63
2022/10/22 01:38:11;;;;;;;900.97;839.13;;;;;;;15.71;76.86;100577.25;698514;28;135981;-63
2022/10/22 01:38:32;;;;;;;913.53;851.13;;;;;;;15.73;77.05;100577.03;697177;28;115143;-63
2022/10/22 01:38:54;;;;;;;894.50;832.88;;;;;;;15.72;76.82;100584.38;700388;28;46336;-64
2022/10/22 01:39:17;;;;;;;885.65;824.35;;;;;;;15.72;76.82;100580.78;703143;28;44401;-63
2022/10/22 01:39:39;;;;;;;894.08;832.45;;;;;;;15.71;76.98;100585.41;703032;28;45259;-63
2022/10/22 01:40:00;;;;;;;896.30;834.70;;;;;;;15.70;77.05;100586.44;703104;28;47194;-63
2022/10/22 01:40:22;;;;;;;886.83;825.42;;;;;;;15.71;76.93;100582.69;702893;28;46307;-63
2022/10/22 01:40:44;;;;;;;876.63;815.45;;;;;;;15.72;76.97;100586.25;703573;28;24399;-63
2022/10/22 01:41:07;;;;;;;882.13;820.92;;;;;;;15.71;77.04;100585.41;702331;27;67526;-63
2022/10/22 01:41:28;;;;;;;874.95;813.92;;;;;;;15.71;76.96;100582.69;702958;28;45325;-62
2022/10/22 01:41:49;;;;;;;888.28;826.88;;;;;;;15.70;77.08;100581.00;703487;28;22382;-63
2022/10/22 01:42:11;;;;;;;885.95;824.70;;;;;;;15.69;77.18;100587.53;703814;28;22442;-63
2022/10/22 01:42:33;;;;;;;866.00;805.35;;;;;;;15.69;77.26;100584.81;702536;28;48315;-63
2022/10/22 01:42:56;;;;;;;882.35;821.22;;;;;;;15.68;77.23;100589.38;702819;28;46359;-63
2022/10/22 01:43:18;;;;;;;879.97;818.97;;;;;;;15.68;77.32;100583.13;701958;28;69403;-63
2022/10/22 01:43:39;;;;;;;891.92;830.38;;;;;;;15.67;77.19;100590.47;702193;28;46258;-63
2022/10/22 01:44:02;;;;;;;887.03;825.53;;;;;;;15.67;77.31;100586.88;703401;28;21506;-63
2022/10/22 01:44:25;;;;;;;888.03;826.45;;;;;;;15.67;77.34;100589.59;701145;28;93021;-63
2022/10/22 01:44:48;;;;;;;886.10;824.67;;;;;;;15.66;77.22;100588.78;701793;28;67460;-63
2022/10/22 01:45:11;;;;;;;889.20;827.60;;;;;;;15.65;77.37;100584.38;701953;28;69546;-62
2022/10/22 01:45:37;;;;;;;896.42;834.65;;;;;;;15.65;77.39;100586.28;701846;28;67482;-63